createdAt,value
2023-04-26T01:20:32.119Z,15.52
2023-04-26T01:22:59.916Z,12.90
2023-04-26T01:25:26.351Z,13.38
2023-04-26T01:27:52.830Z,21.67
2023-04-26T01:30:19.293Z,12.57
2023-04-26T01:32:45.772Z,10.50
2023-04-26T01:35:12.218Z,16.50
2023-04-26T01:37:38.718Z,17.45
2023-04-26T01:40:08.211Z,10.98
2023-04-26T01:42:34.678Z,16.90
2023-04-26T01:45:01.253Z,15.02
2023-04-26T01:47:27.737Z,15.65
2023-04-26T01:49:54.323Z,14.30
2023-04-26T01:52:21.459Z,13.87
2023-04-26T01:54:47.904Z,16.48
2023-04-26T01:57:15.655Z,13.10
2023-04-26T01:59:42.097Z,15.30
2023-04-26T02:02:08.592Z,13.70
2023-04-26T02:04:35.668Z,18.33
2023-04-26T02:07:02.175Z,12.05
2023-04-26T02:09:28.612Z,18.90
2023-04-26T02:11:55.271Z,18.45
2023-04-26T02:14:23.107Z,20.43
2023-04-26T02:16:49.571Z,18.67
2023-04-26T02:19:16.034Z,13.35
2023-04-26T02:21:53.014Z,21.42
2023-04-26T02:24:19.528Z,15.00
2023-04-26T02:26:46.016Z,16.00
2023-04-26T02:29:12.544Z,19.17
2023-04-26T02:31:40.432Z,18.88
2023-04-26T02:34:06.870Z,16.48
2023-04-26T02:36:33.415Z,11.40
2023-04-26T02:38:59.895Z,16.02
2023-04-26T02:41:26.366Z,12.85
2023-04-26T02:43:52.875Z,20.70
2023-04-26T02:46:19.341Z,19.83
2023-04-26T02:48:47.139Z,16.35
2023-04-26T02:51:13.609Z,17.02
2023-04-26T02:53:40.328Z,20.65
2023-04-26T02:56:07.094Z,16.55
2023-04-26T02:58:33.804Z,15.60
2023-04-26T03:01:01.582Z,16.42
2023-04-26T03:03:28.550Z,19.00
2023-04-26T03:05:56.644Z,14.07
2023-04-26T03:08:23.105Z,12.60
2023-04-26T03:10:49.539Z,18.42
2023-04-26T03:13:16.021Z,19.48
2023-04-26T03:15:44.669Z,20.48
2023-04-26T03:18:11.159Z,19.23
2023-04-26T03:20:37.619Z,17.70
2023-04-26T03:23:05.457Z,15.18
2023-04-26T03:25:32.925Z,21.67
2023-04-26T03:30:25.696Z,22.95
2023-04-26T03:32:53.064Z,16.83
2023-04-26T03:35:19.516Z,14.07
2023-04-26T03:37:45.958Z,18.60
2023-04-26T03:40:13.833Z,21.83
2023-04-26T03:42:40.453Z,19.20
2023-04-26T03:45:08.228Z,13.13
2023-04-26T03:47:34.728Z,17.88
2023-04-26T03:50:01.207Z,15.18
2023-04-26T03:52:27.627Z,16.35
2023-04-26T03:54:54.076Z,22.25
2023-04-26T03:57:21.961Z,18.52
2023-04-26T03:59:48.389Z,24.48
2023-04-26T04:02:14.917Z,18.38
2023-04-26T04:04:41.739Z,22.73
2023-04-26T04:07:08.338Z,16.02
2023-04-26T04:09:34.754Z,16.02
2023-04-26T04:12:01.917Z,25.58
2023-04-26T04:14:29.662Z,24.48
2023-04-26T04:16:56.089Z,20.30
2023-04-26T04:19:22.590Z,25.08
2023-04-26T04:21:49.040Z,27.08
2023-04-26T04:24:15.453Z,16.98
2023-04-26T04:26:41.896Z,21.58
2023-04-26T04:29:08.298Z,25.75
2023-04-26T04:31:36.363Z,16.88
2023-04-26T04:34:02.807Z,25.55
2023-04-26T04:36:29.251Z,23.45
2023-04-26T04:38:55.679Z,25.85
2023-04-26T04:41:22.129Z,26.08
2023-04-26T04:43:48.598Z,19.35
2023-04-26T04:46:15.107Z,20.02
2023-04-26T04:48:43.050Z,22.20
2023-04-26T04:51:09.489Z,27.85
2023-04-26T04:53:35.893Z,23.88
2023-04-26T04:56:02.310Z,21.05
2023-04-26T04:58:28.785Z,24.10
2023-04-26T05:00:55.174Z,24.08
2023-04-26T05:03:21.770Z,22.85
2023-04-26T05:05:49.591Z,17.80
2023-04-26T05:08:16.075Z,20.27
2023-04-26T05:10:42.478Z,34.05
2023-04-26T05:13:08.933Z,25.67
2023-04-26T05:15:35.355Z,17.42
2023-04-26T05:18:01.877Z,22.77
2023-04-26T05:20:28.337Z,22.33
2023-04-26T05:22:56.097Z,16.80
2023-04-26T05:25:22.897Z,30.80
2023-04-26T05:27:49.513Z,32.55
2023-04-26T05:30:15.936Z,19.33
2023-04-26T05:32:42.437Z,23.17
2023-04-26T05:35:09.312Z,21.08
2023-04-26T05:37:35.748Z,15.77
2023-04-26T05:40:04.283Z,22.73
2023-04-26T05:42:30.725Z,23.40
2023-04-26T05:44:57.959Z,22.33
2023-04-26T05:47:24.526Z,22.23
2023-04-26T05:49:50.950Z,24.07
2023-04-26T05:52:17.366Z,19.42
2023-04-26T05:54:43.777Z,22.35
2023-04-26T05:57:11.712Z,127.45
2023-04-26T05:59:38.177Z,62.85
2023-04-26T06:02:04.686Z,139.13
2023-04-26T06:04:31.329Z,16.20
2023-04-26T06:06:58.041Z,14.95
2023-04-26T06:09:24.555Z,22.80
2023-04-26T06:11:51.035Z,23.52
2023-04-26T06:14:30.004Z,21.75
2023-04-26T06:16:57.906Z,25.73
2023-04-26T06:19:24.453Z,19.90
2023-04-26T06:21:50.945Z,14.77
2023-04-26T06:24:17.410Z,15.82
2023-04-26T06:26:43.890Z,17.27
2023-04-26T06:29:10.338Z,19.40
2023-04-26T06:31:38.249Z,21.48
2023-04-26T06:34:04.772Z,24.35
2023-04-26T06:36:31.259Z,15.18
2023-04-26T06:38:57.661Z,15.93
2023-04-26T06:41:24.236Z,17.73
2023-04-26T06:43:50.983Z,19.02
2023-04-26T06:46:17.830Z,19.77
2023-04-26T06:48:45.563Z,17.08
2023-04-26T06:51:12.043Z,17.25
2023-04-26T06:53:38.586Z,13.60
2023-04-26T06:56:05.528Z,15.73
2023-04-26T06:58:32.087Z,16.45
2023-04-26T07:00:58.534Z,20.40
2023-04-26T07:03:25.087Z,16.05
2023-04-26T07:05:54.974Z,13.85
2023-04-26T07:08:21.377Z,14.43
2023-04-26T07:10:47.912Z,11.88
2023-04-26T07:13:14.332Z,8.68
2023-04-26T07:15:40.801Z,11.88
2023-04-26T07:18:07.271Z,11.95
2023-04-26T07:20:33.710Z,14.07
2023-04-26T07:23:01.492Z,12.00
2023-04-26T07:25:27.880Z,8.70
2023-04-26T07:27:54.310Z,11.55
2023-04-26T07:30:20.919Z,11.98
2023-04-26T07:32:47.501Z,5.23
2023-04-26T07:35:14.029Z,7.97
2023-04-26T07:37:40.458Z,6.53
2023-04-26T07:40:09.719Z,6.90
2023-04-26T07:42:36.207Z,7.10
2023-04-26T07:45:02.995Z,12.02
2023-04-26T07:47:29.489Z,10.45
2023-04-26T07:49:55.942Z,10.07
2023-04-26T07:52:22.588Z,8.95
2023-04-26T07:54:48.984Z,8.37
2023-04-26T07:57:16.799Z,10.68
2023-04-26T07:59:43.228Z,15.27
2023-04-26T08:02:10.113Z,12.30
2023-04-26T08:04:36.729Z,7.53
2023-04-26T08:07:03.353Z,12.10
2023-04-26T08:09:30.263Z,6.05
2023-04-26T08:11:56.840Z,7.90
2023-04-26T08:14:24.747Z,11.02
2023-04-26T08:16:51.213Z,6.97
2023-04-26T08:19:17.701Z,11.07
2023-04-26T08:21:44.129Z,8.15
2023-04-26T08:24:10.577Z,8.80
2023-04-26T08:26:37.012Z,11.52
2023-04-26T08:29:03.477Z,9.02
2023-04-26T08:31:31.427Z,8.80
2023-04-26T08:33:57.956Z,9.70
2023-04-26T08:36:24.380Z,6.43
2023-04-26T08:38:50.780Z,8.88
2023-04-26T08:41:22.115Z,9.73
2023-04-26T08:43:49.418Z,10.10
2023-04-26T08:46:19.509Z,8.88
2023-04-26T08:48:54.499Z,9.80
2023-04-26T08:51:22.071Z,15.45
2023-04-26T08:53:50.911Z,8.93
2023-04-26T08:56:17.512Z,8.23
2023-04-26T08:58:44.016Z,7.07
2023-04-26T09:01:15.005Z,9.05
2023-04-26T09:03:41.549Z,8.77
2023-04-26T09:06:10.324Z,9.27
2023-04-26T09:08:38.253Z,10.60
2023-04-26T09:11:04.853Z,11.10
2023-04-26T09:13:31.252Z,11.82
2023-04-26T09:15:57.835Z,7.65
2023-04-26T09:18:24.557Z,11.83
2023-04-26T09:21:13.136Z,8.23
2023-04-26T09:23:56.923Z,11.98
2023-04-26T09:26:23.396Z,9.80
2023-04-26T09:28:50.016Z,7.50
2023-04-26T09:31:37.587Z,9.27
2023-04-26T09:34:04.156Z,6.20
2023-04-26T09:36:31.974Z,9.55
2023-04-26T09:38:58.420Z,8.60
2023-04-26T09:41:41.463Z,13.50
2023-04-26T09:44:21.060Z,7.15
2023-04-26T09:46:58.082Z,6.93
2023-04-26T09:49:26.075Z,8.43
2023-04-26T09:52:01.991Z,9.82
2023-04-26T09:54:38.881Z,11.18
2023-04-26T09:57:05.339Z,10.02
2023-04-26T09:59:39.716Z,9.85
2023-04-26T10:02:16.784Z,13.70
2023-04-26T10:04:45.688Z,11.90
2023-04-26T10:07:14.569Z,17.40
2023-04-26T10:09:41.435Z,10.18
2023-04-26T10:12:09.123Z,10.68
2023-04-26T10:14:36.184Z,8.68
2023-04-26T10:17:03.729Z,6.85
2023-04-26T10:22:01.414Z,12.30
2023-04-26T10:24:29.418Z,7.82
2023-04-26T10:26:56.296Z,10.93
2023-04-26T10:29:23.934Z,10.35
2023-04-26T10:32:06.832Z,9.05
2023-04-26T10:34:34.783Z,8.65
2023-04-26T10:37:11.267Z,8.98
2023-04-26T10:39:40.275Z,8.10
2023-04-26T10:42:25.553Z,12.57
2023-04-26T10:44:53.075Z,6.63
2023-04-26T10:47:24.402Z,11.25
2023-04-26T10:49:50.959Z,9.07
2023-04-26T10:52:18.569Z,10.68
2023-04-26T10:54:53.940Z,7.07
2023-04-26T10:57:21.195Z,7.10
2023-04-26T11:00:25.100Z,10.52
2023-04-26T11:02:56.959Z,12.45
2023-04-26T11:05:34.140Z,8.10
2023-04-26T11:08:04.759Z,8.60
2023-04-26T11:10:33.303Z,5.97
2023-04-26T11:13:01.726Z,9.15
2023-04-26T11:17:55.101Z,7.65
2023-04-26T11:20:21.605Z,7.35
2023-04-26T11:22:48.090Z,11.32
2023-04-26T11:25:14.788Z,7.05
2023-04-26T11:27:44.246Z,9.97
2023-04-26T11:30:12.272Z,7.30
2023-04-26T11:32:38.763Z,7.68
2023-04-26T11:35:06.024Z,6.35
2023-04-26T11:37:34.105Z,6.85
2023-04-26T11:40:00.568Z,7.30
2023-04-26T11:42:27.022Z,7.80
2023-04-26T11:44:56.948Z,10.40
2023-04-26T11:47:23.593Z,8.63
2023-04-26T11:49:50.364Z,8.60
2023-04-26T11:52:16.960Z,7.53
2023-04-26T11:54:43.393Z,7.22
2023-04-26T11:57:15.364Z,4.13
2023-04-26T11:59:43.485Z,7.93
2023-04-26T12:02:11.877Z,7.63
2023-04-26T12:04:38.948Z,5.80
2023-04-26T12:07:05.573Z,5.22
2023-04-26T12:09:32.160Z,6.70
2023-04-26T12:11:59.174Z,10.53
2023-04-26T12:14:30.900Z,9.68
2023-04-26T12:16:59.244Z,5.88
2023-04-26T12:19:27.205Z,8.18
2023-04-26T12:21:53.667Z,6.80
2023-04-26T12:24:22.592Z,7.40
2023-04-26T12:26:49.087Z,5.60
2023-04-26T12:29:15.586Z,10.02
2023-04-26T12:31:42.603Z,8.15
2023-04-26T12:34:09.119Z,5.55
2023-04-26T12:36:36.929Z,5.68
2023-04-26T12:39:03.448Z,12.55
2023-04-26T12:41:29.901Z,13.90
2023-04-26T12:43:56.905Z,12.18
2023-04-26T12:46:23.379Z,3.78
2023-04-26T12:48:49.803Z,5.68
2023-04-26T12:51:16.219Z,7.65
2023-04-26T12:53:44.052Z,4.45
2023-04-26T12:56:10.549Z,6.53
2023-04-26T12:58:37.035Z,4.68
2023-04-26T13:01:03.643Z,6.55
2023-04-26T13:03:30.401Z,4.43
2023-04-26T13:05:57.022Z,5.88
2023-04-26T13:08:23.507Z,3.85
2023-04-26T13:10:51.267Z,6.87
2023-04-26T13:13:18.284Z,3.65
2023-04-26T13:15:44.800Z,4.88
2023-04-26T13:18:11.394Z,6.33
2023-04-26T13:20:37.834Z,3.37
2023-04-26T13:23:04.282Z,2.75
2023-04-26T13:25:30.730Z,3.17
2023-04-26T13:27:58.605Z,3.10
2023-04-26T13:30:25.091Z,6.97
2023-04-26T13:32:51.556Z,5.63
2023-04-26T13:35:18.199Z,3.00
2023-04-26T13:37:44.636Z,6.70
2023-04-26T13:40:11.840Z,3.95
2023-04-26T13:42:38.928Z,6.70
2023-04-26T13:45:07.917Z,6.40
2023-04-26T13:47:34.499Z,6.70
2023-04-26T13:50:00.969Z,4.23
2023-04-26T13:52:27.568Z,7.40
2023-04-26T13:54:54.030Z,6.03
2023-04-26T13:57:20.658Z,5.18
2023-04-26T13:59:47.079Z,7.90
2023-04-26T14:02:15.180Z,3.55
2023-04-26T14:04:42.143Z,4.50
2023-04-26T14:07:09.597Z,4.30
2023-04-26T14:12:08.572Z,6.22
2023-04-26T14:14:35.487Z,4.25
2023-04-26T14:17:01.935Z,5.53
2023-04-26T14:19:29.779Z,8.20
2023-04-26T14:21:56.236Z,3.33
2023-04-26T14:24:22.699Z,6.77
2023-04-26T14:26:49.185Z,7.25
2023-04-26T14:29:15.616Z,9.20
2023-04-26T14:31:42.094Z,8.63
2023-04-26T14:34:08.566Z,4.90
2023-04-26T14:36:36.409Z,5.38
2023-04-26T14:39:02.829Z,5.97
2023-04-26T14:41:29.278Z,3.92
2023-04-26T14:43:55.722Z,6.25
2023-04-26T14:46:22.179Z,3.05
2023-04-26T14:48:48.653Z,6.30
2023-04-26T14:51:15.096Z,7.00
2023-04-26T14:53:42.851Z,3.22
2023-04-26T14:56:09.486Z,5.95
2023-04-26T14:58:35.956Z,5.97
2023-04-26T15:01:02.567Z,4.22
2023-04-26T15:03:29.365Z,4.00
2023-04-26T15:05:55.915Z,3.55
2023-04-26T15:08:22.493Z,6.35
2023-04-26T15:10:50.263Z,6.23
2023-04-26T15:13:16.928Z,3.72
2023-04-26T15:15:43.496Z,4.38
2023-04-26T15:18:10.039Z,5.65
2023-04-26T15:20:38.882Z,4.97
2023-04-26T15:23:05.305Z,3.75
2023-04-26T15:25:34.565Z,6.53
2023-04-26T15:28:02.350Z,8.82
2023-04-26T15:30:28.790Z,3.92
2023-04-26T15:32:55.268Z,2.83
2023-04-26T15:35:21.797Z,3.63
2023-04-26T15:37:48.230Z,7.30
2023-04-26T15:40:14.648Z,8.80
2023-04-26T15:42:41.073Z,2.20
2023-04-26T15:45:09.802Z,7.15
2023-04-26T15:47:36.317Z,6.00
2023-04-26T15:50:03.272Z,4.17
2023-04-26T15:52:29.754Z,3.85
2023-04-26T15:54:56.169Z,3.83
2023-04-26T15:57:22.616Z,8.10
2023-04-26T15:59:49.485Z,3.35
2023-04-26T16:02:17.353Z,3.65
2023-04-26T16:04:43.937Z,5.90
2023-04-26T16:07:10.422Z,4.72
2023-04-26T16:12:04.771Z,4.70
2023-04-26T16:14:32.260Z,3.92
2023-04-26T16:19:29.384Z,5.15
2023-04-26T16:21:55.820Z,6.18
2023-04-26T16:24:22.261Z,7.18
2023-04-26T16:26:48.709Z,5.38
2023-04-26T16:29:15.100Z,4.65
2023-04-26T16:31:41.715Z,5.35
2023-04-26T16:34:08.122Z,2.70
2023-04-26T16:36:36.209Z,8.77
2023-04-26T16:39:02.635Z,6.72
2023-04-26T16:41:29.100Z,6.53
2023-04-26T16:43:55.550Z,9.48
2023-04-26T16:46:22.109Z,7.97
2023-04-26T16:48:48.592Z,9.52
2023-04-26T16:51:15.026Z,8.90
2023-04-26T16:53:42.740Z,7.28
2023-04-26T16:56:09.204Z,10.52
2023-04-26T16:58:35.615Z,7.85
2023-04-26T17:01:02.087Z,5.28
2023-04-26T17:03:28.912Z,8.25
2023-04-26T17:05:55.471Z,6.25
2023-04-26T17:08:21.994Z,10.02
2023-04-26T17:10:49.845Z,8.00
2023-04-26T17:13:16.288Z,7.28
2023-04-26T17:15:43.142Z,8.55
2023-04-26T17:18:09.832Z,7.25
2023-04-26T17:20:36.507Z,9.88
2023-04-26T17:23:03.762Z,18.20
2023-04-26T17:25:30.494Z,7.45
2023-04-26T17:27:58.344Z,10.83
2023-04-26T17:30:24.809Z,6.75
2023-04-26T17:32:51.284Z,5.32
2023-04-26T17:35:17.888Z,9.13
2023-04-26T17:37:44.367Z,6.57
2023-04-26T17:40:11.566Z,10.27
2023-04-26T17:42:38.002Z,8.23
2023-04-26T17:45:07.504Z,8.45
2023-04-26T17:47:34.012Z,10.32
2023-04-26T17:50:00.503Z,9.15
2023-04-26T17:52:27.065Z,7.90
2023-04-26T17:54:53.957Z,7.53
2023-04-26T17:57:20.416Z,9.68
2023-04-26T17:59:46.808Z,8.15
2023-04-26T18:02:14.670Z,8.90
2023-04-26T18:04:41.358Z,7.13
2023-04-26T18:07:07.976Z,14.90
2023-04-26T18:09:34.460Z,10.02
2023-04-26T18:12:00.876Z,12.13
2023-04-26T18:14:27.267Z,141.15
2023-04-26T18:16:53.753Z,107.40
2023-04-26T18:19:21.649Z,6.65
2023-04-26T18:21:48.092Z,5.65
2023-04-26T18:24:14.481Z,8.23
2023-04-26T18:26:41.245Z,1999.90
2023-04-26T18:29:07.655Z,1999.90
2023-04-26T18:31:34.144Z,1999.90
2023-04-26T18:34:00.627Z,1999.90
2023-04-26T18:36:28.413Z,1999.90
2023-04-26T18:38:54.920Z,1999.90
2023-04-26T18:41:21.479Z,682.72
2023-04-26T18:43:47.921Z,1999.90
2023-04-26T18:46:14.386Z,1999.90
2023-04-26T18:48:40.984Z,107.90
2023-04-26T18:51:07.556Z,8.10
2023-04-26T18:53:35.469Z,6.85
2023-04-26T18:56:01.983Z,7.32
2023-04-26T18:58:28.432Z,6.65
2023-04-26T19:00:54.837Z,10.05
2023-04-26T19:03:21.719Z,8.55
2023-04-26T19:05:48.569Z,13.68
2023-04-26T19:08:15.110Z,7.65
2023-04-26T19:10:42.934Z,10.30
2023-04-26T19:13:09.378Z,11.63
2023-04-26T19:15:35.833Z,6.78
2023-04-26T19:18:02.425Z,3.78
2023-04-26T19:20:28.966Z,15.87
2023-04-26T19:22:55.471Z,7.75
2023-04-26T19:25:22.044Z,10.45
2023-04-26T19:27:49.911Z,12.45
2023-04-26T19:30:16.320Z,7.90
2023-04-26T19:32:42.819Z,8.10
2023-04-26T19:35:09.511Z,7.00
2023-04-26T19:37:35.983Z,7.60
2023-04-26T19:40:02.561Z,6.60
2023-04-26T19:42:28.987Z,9.40
2023-04-26T19:44:56.915Z,5.63
2023-04-26T19:47:23.399Z,9.43
2023-04-26T19:49:49.806Z,8.20
2023-04-26T19:52:16.222Z,9.48
2023-04-26T19:54:42.615Z,10.43
2023-04-26T19:57:09.041Z,8.68
2023-04-26T19:59:35.472Z,7.95
2023-04-26T20:02:03.267Z,5.55
2023-04-26T20:04:29.770Z,6.32
2023-04-26T20:06:56.226Z,9.05
2023-04-26T20:09:22.660Z,10.88
2023-04-26T20:11:49.110Z,9.85
2023-04-26T20:14:15.541Z,8.80
2023-04-26T20:16:42.041Z,8.88
2023-04-26T20:19:10.188Z,8.38
2023-04-26T20:21:36.833Z,11.55
2023-04-26T20:24:03.495Z,6.97
2023-04-26T20:26:29.951Z,7.67
2023-04-26T20:28:56.355Z,7.50
2023-04-26T20:31:22.889Z,13.93
2023-04-26T20:33:49.344Z,9.07
2023-04-26T20:36:17.106Z,10.38
2023-04-26T20:38:43.501Z,5.90
2023-04-26T20:41:09.989Z,6.93
2023-04-26T20:43:36.448Z,7.20
2023-04-26T20:46:02.921Z,8.77
2023-04-26T20:48:29.438Z,7.70
2023-04-26T20:50:55.855Z,7.53
2023-04-26T20:53:23.707Z,9.15
2023-04-26T20:55:51.642Z,8.23
2023-04-26T20:58:18.094Z,6.47
2023-04-26T21:00:44.508Z,7.38
2023-04-26T21:03:11.038Z,10.25
2023-04-26T21:05:37.475Z,5.10
2023-04-26T21:08:03.936Z,10.98
2023-04-26T21:10:31.794Z,8.38
2023-04-26T21:12:58.233Z,8.77
2023-04-26T21:15:24.702Z,13.48
2023-04-26T21:17:51.178Z,6.80
2023-04-26T21:20:17.740Z,11.68
2023-04-26T21:22:44.274Z,13.48
2023-04-26T21:25:10.696Z,7.88
2023-04-26T21:27:38.559Z,8.18
2023-04-26T21:30:06.423Z,5.47
2023-04-26T21:32:32.847Z,6.03
2023-04-26T21:34:59.285Z,9.77
2023-04-26T21:37:26.063Z,8.00
2023-04-26T21:39:52.900Z,10.85
2023-04-26T21:42:19.655Z,9.88
2023-04-26T21:44:47.797Z,6.43
2023-04-26T21:47:14.244Z,7.63
2023-04-26T21:49:40.648Z,4.93
2023-04-26T21:52:07.078Z,8.00
2023-04-26T21:54:33.540Z,7.75
2023-04-26T21:56:59.970Z,8.23
2023-04-26T21:59:26.354Z,7.30
2023-04-26T22:01:54.173Z,11.13
2023-04-26T22:04:20.733Z,10.02
2023-04-26T22:06:47.335Z,9.13
2023-04-26T22:09:13.834Z,9.38
2023-04-26T22:13:06.799Z,6.47
2023-04-26T22:15:33.231Z,7.40
2023-04-26T22:17:59.802Z,9.82
2023-04-26T22:20:26.318Z,11.10
2023-04-26T22:22:52.770Z,9.77
2023-04-26T22:25:19.239Z,7.20
2023-04-26T22:27:45.665Z,6.82
2023-04-26T22:30:25.002Z,10.93
2023-04-26T22:32:53.424Z,10.85
2023-04-26T22:35:20.247Z,11.10
2023-04-26T22:37:46.987Z,13.68
2023-04-26T22:40:13.726Z,11.02
2023-04-26T22:42:40.228Z,4.65
2023-04-26T22:45:08.330Z,9.02
2023-04-26T22:47:36.264Z,11.77
2023-04-26T22:50:02.789Z,14.50
2023-04-26T22:52:31.741Z,12.32
2023-04-26T22:54:58.770Z,8.80
2023-04-26T22:57:25.240Z,10.57
2023-04-26T22:59:51.671Z,13.38
2023-04-26T23:02:18.185Z,6.28
2023-04-26T23:04:46.359Z,6.60
2023-04-26T23:07:12.871Z,7.13
2023-04-26T23:09:39.423Z,8.18
2023-04-26T23:12:05.976Z,9.65
2023-04-26T23:14:32.431Z,7.63
2023-04-26T23:16:59.012Z,8.85
2023-04-26T23:19:25.581Z,7.88
2023-04-26T23:21:53.524Z,8.60
2023-04-26T23:24:19.952Z,6.65
2023-04-26T23:26:46.424Z,7.82
2023-04-26T23:29:13.026Z,12.32
2023-04-26T23:31:39.694Z,12.48
2023-04-26T23:34:06.150Z,10.18
2023-04-26T23:36:32.589Z,9.77
2023-04-26T23:39:00.331Z,10.27
2023-04-26T23:41:26.813Z,4.88
2023-04-26T23:43:53.227Z,8.25
2023-04-26T23:46:19.713Z,13.27
2023-04-26T23:48:46.163Z,7.55
2023-04-26T23:51:12.592Z,8.27
2023-04-26T23:53:38.967Z,12.50
2023-04-26T23:56:07.275Z,8.70
2023-04-26T23:58:33.882Z,8.23
